createdAt,value
2023-10-22T00:01:26.948Z,1.00
2023-10-22T00:03:55.188Z,1.00
2023-10-22T00:06:23.572Z,1.00
2023-10-22T00:08:52.860Z,1.00
2023-10-22T00:11:20.828Z,1.00
2023-10-22T00:13:48.751Z,1.00
2023-10-22T00:16:16.674Z,1.00
2023-10-22T00:18:44.724Z,1.00
2023-10-22T00:21:12.798Z,1.00
2023-10-22T00:23:40.770Z,1.00
2023-10-22T00:26:15.864Z,1.00
2023-10-22T00:28:43.753Z,1.00
2023-10-22T00:31:11.651Z,1.00
2023-10-22T00:33:39.666Z,1.00
2023-10-22T00:36:08.076Z,1.00
2023-10-22T00:38:36.063Z,1.00
2023-10-22T00:41:03.995Z,1.00
2023-10-22T00:43:33.315Z,1.00
2023-10-22T00:46:01.492Z,1.00
2023-10-22T00:48:29.630Z,1.00
2023-10-22T00:50:58.500Z,1.00
2023-10-22T00:53:31.285Z,16.50
2023-10-22T00:55:59.443Z,2.50
2023-10-22T00:58:28.583Z,1.00
2023-10-22T01:00:58.452Z,1.00
2023-10-22T01:03:26.869Z,1.00
2023-10-22T01:05:54.911Z,22.50
2023-10-22T01:08:22.940Z,21.50
2023-10-22T01:10:51.356Z,1.10
2023-10-22T01:13:19.284Z,1.00
2023-10-22T01:15:47.795Z,1.00
2023-10-22T01:18:17.317Z,1.00
2023-10-22T01:20:45.341Z,1.00
2023-10-22T01:23:14.647Z,11.30
2023-10-22T01:25:42.566Z,1.00
2023-10-22T01:28:10.620Z,1.00
2023-10-22T01:30:39.377Z,1.00
2023-10-22T01:33:08.256Z,1.00
2023-10-22T01:35:36.546Z,1.00
2023-10-22T01:38:04.940Z,1.00
2023-10-22T01:40:34.202Z,1.00
2023-10-22T01:43:02.084Z,1.00
2023-10-22T01:45:30.463Z,1.00
2023-10-22T01:47:58.518Z,1.00
2023-10-22T01:50:26.521Z,1.00
2023-10-22T01:52:54.709Z,1.00
2023-10-22T01:55:22.598Z,1.00
2023-10-22T01:57:51.875Z,1.00
2023-10-22T02:00:19.991Z,1.00
2023-10-22T02:02:48.065Z,1.00
2023-10-22T02:05:16.047Z,1.00
2023-10-22T02:07:44.001Z,1.00
2023-10-22T02:10:12.654Z,1.00
2023-10-22T02:12:40.613Z,1.00
2023-10-22T02:15:10.982Z,1.00
2023-10-22T02:17:39.223Z,1.00
2023-10-22T02:20:10.137Z,1.00
2023-10-22T02:22:38.586Z,1.00
2023-10-22T02:25:08.041Z,1.00
2023-10-22T02:27:36.284Z,1.00
2023-10-22T02:30:04.633Z,1.00
2023-10-22T02:32:34.768Z,1.00
2023-10-22T02:35:02.982Z,1.00
2023-10-22T02:37:30.878Z,1.00
2023-10-22T02:39:58.774Z,1.00
2023-10-22T02:42:27.347Z,1.00
2023-10-22T02:44:55.327Z,1.00
2023-10-22T02:47:23.407Z,1.00
2023-10-22T02:49:55.420Z,1.00
2023-10-22T02:52:23.328Z,1.00
2023-10-22T02:54:51.217Z,1.00
2023-10-22T02:57:20.207Z,1.00
2023-10-22T02:59:48.933Z,1.00
2023-10-22T03:02:16.926Z,1.00
2023-10-22T03:04:44.864Z,1.00
2023-10-22T03:07:14.129Z,1.00
2023-10-22T03:09:42.047Z,1.00
2023-10-22T03:12:12.881Z,1.00
2023-10-22T03:14:40.854Z,1.00
2023-10-22T03:17:08.782Z,1.00
2023-10-22T03:19:37.262Z,1.00
2023-10-22T03:22:06.496Z,1.00
2023-10-22T03:24:35.933Z,1.00
2023-10-22T03:27:05.290Z,1.00
2023-10-22T03:29:33.476Z,1.00
2023-10-22T03:32:01.426Z,1.00
2023-10-22T03:34:29.331Z,1.00
2023-10-22T03:36:57.251Z,1.00
2023-10-22T03:39:25.159Z,1.00
2023-10-22T03:41:54.405Z,1.00
2023-10-22T03:44:22.345Z,1.00
2023-10-22T03:46:50.238Z,1.00
2023-10-22T03:49:18.158Z,1.00
2023-10-22T03:51:46.082Z,1.00
2023-10-22T03:54:14.022Z,1.00
2023-10-22T03:56:41.994Z,1.00
2023-10-22T03:59:11.344Z,1.00
2023-10-22T04:01:39.271Z,1.00
2023-10-22T04:04:07.524Z,1.00
2023-10-22T04:06:35.855Z,1.00
2023-10-22T04:09:04.104Z,1.00
2023-10-22T04:11:32.076Z,1.00
2023-10-22T04:13:59.966Z,1.00
2023-10-22T04:16:29.281Z,1.00
2023-10-22T04:18:57.196Z,1.00
2023-10-22T04:21:25.137Z,1.00
2023-10-22T04:23:53.382Z,1.00
2023-10-22T04:26:21.317Z,1.00
2023-10-22T04:28:49.230Z,1.00
2023-10-22T04:31:17.262Z,1.00
2023-10-22T04:33:46.687Z,1.00
2023-10-22T04:36:18.141Z,1.00
2023-10-22T04:38:46.139Z,1.00
2023-10-22T04:41:14.490Z,1.00
2023-10-22T04:43:43.308Z,1.00
2023-10-22T04:46:11.658Z,1.00
2023-10-22T04:48:39.635Z,1.00
2023-10-22T04:51:10.306Z,1.00
2023-10-22T04:53:38.294Z,1.00
2023-10-22T04:56:07.369Z,1.00
2023-10-22T04:58:36.436Z,1.00
2023-10-22T05:01:04.358Z,1.00
2023-10-22T05:03:32.605Z,1.00
2023-10-22T05:06:09.725Z,1.00
2023-10-22T05:08:40.600Z,1.00
2023-10-22T05:11:14.007Z,1.00
2023-10-22T05:13:41.960Z,1.00
2023-10-22T05:16:11.227Z,1.00
2023-10-22T05:18:39.825Z,1.00
2023-10-22T05:21:09.098Z,1.00
2023-10-22T05:23:38.969Z,26.70
2023-10-22T05:26:08.596Z,66.30
2023-10-22T05:28:36.710Z,97.90
2023-10-22T05:31:12.684Z,65.90
2023-10-22T05:33:40.727Z,99.90
2023-10-22T05:36:16.513Z,99.90
2023-10-22T05:38:45.970Z,99.90
2023-10-22T05:41:19.633Z,99.90
2023-10-22T05:43:47.529Z,91.80
2023-10-22T05:46:15.457Z,99.90
2023-10-22T05:48:43.464Z,99.90
2023-10-22T05:51:11.474Z,99.90
2023-10-22T05:53:39.369Z,99.90
2023-10-22T05:56:08.641Z,99.90
2023-10-22T05:58:36.588Z,99.90
2023-10-22T06:01:04.834Z,99.90
2023-10-22T06:03:33.018Z,99.90
2023-10-22T06:06:01.159Z,99.90
2023-10-22T06:08:29.076Z,99.90
2023-10-22T06:10:57.139Z,99.90
2023-10-22T06:13:26.499Z,99.90
2023-10-22T06:15:58.186Z,99.90
2023-10-22T06:18:26.308Z,99.90
2023-10-22T06:20:54.338Z,99.90
2023-10-22T06:23:23.335Z,99.90
2023-10-22T06:25:51.247Z,99.90
2023-10-22T06:28:19.473Z,99.90
2023-10-22T06:30:48.710Z,76.20
2023-10-22T06:33:16.670Z,63.80
2023-10-22T06:35:44.759Z,56.50
2023-10-22T06:38:12.687Z,84.80
2023-10-22T06:40:40.548Z,79.30
2023-10-22T06:43:08.729Z,59.10
2023-10-22T06:45:38.029Z,48.90
2023-10-22T06:48:08.045Z,34.90
2023-10-22T06:50:36.046Z,1.00
2023-10-22T06:53:03.937Z,2.90
2023-10-22T06:55:31.840Z,1.00
2023-10-22T06:57:59.743Z,1.00
2023-10-22T07:00:27.689Z,1.00
2023-10-22T07:02:55.708Z,1.00
2023-10-22T07:05:25.133Z,1.00
2023-10-22T07:07:53.037Z,1.00
2023-10-22T07:10:20.951Z,1.00
2023-10-22T07:12:48.836Z,1.00
2023-10-22T07:15:16.963Z,1.00
2023-10-22T07:17:45.001Z,1.00
2023-10-22T07:20:13.737Z,1.00
2023-10-22T07:22:43.290Z,1.00
2023-10-22T07:25:11.213Z,1.00
2023-10-22T07:27:39.515Z,1.00
2023-10-22T07:30:08.874Z,1.00
2023-10-22T07:32:36.797Z,1.00
2023-10-22T07:35:05.146Z,1.00
2023-10-22T07:37:33.570Z,1.00
2023-10-22T07:40:03.353Z,1.00
2023-10-22T07:42:35.236Z,1.00
2023-10-22T07:45:03.427Z,1.00
2023-10-22T07:47:31.423Z,1.00
2023-10-22T07:49:59.321Z,1.00
2023-10-22T07:52:27.458Z,1.00
2023-10-22T07:54:55.349Z,1.00
2023-10-22T07:57:24.629Z,1.00
2023-10-22T07:59:52.622Z,1.00
2023-10-22T08:02:19.559Z,1.00
2023-10-22T08:04:47.496Z,1.00
2023-10-22T08:07:18.881Z,1.00
2023-10-22T08:09:46.866Z,1.00
2023-10-22T08:12:15.042Z,1.00
2023-10-22T08:14:44.521Z,1.00
2023-10-22T08:17:12.408Z,1.00
2023-10-22T08:19:40.287Z,1.00
2023-10-22T08:22:08.183Z,1.00
2023-10-22T08:24:36.399Z,1.00
2023-10-22T08:27:05.585Z,1.00
2023-10-22T08:29:33.873Z,1.00
2023-10-22T08:32:03.135Z,1.00
2023-10-22T08:34:31.173Z,1.00
2023-10-22T08:36:59.087Z,1.00
2023-10-22T08:39:28.118Z,1.00
2023-10-22T08:42:01.198Z,1.00
2023-10-22T08:44:30.884Z,1.00
2023-10-22T08:46:58.980Z,1.00
2023-10-22T08:49:29.209Z,1.00
2023-10-22T08:51:58.110Z,1.00
2023-10-22T08:54:27.594Z,1.00
2023-10-22T08:56:55.774Z,99.90
2023-10-22T08:59:24.538Z,99.90
2023-10-22T09:01:53.004Z,99.90
2023-10-22T09:04:21.642Z,1.00
2023-10-22T09:06:54.458Z,1.00
2023-10-22T09:09:34.238Z,1.00
2023-10-22T09:12:02.338Z,1.00
2023-10-22T09:14:30.476Z,1.00
2023-10-22T09:16:58.857Z,99.90
2023-10-22T09:19:37.234Z,1.00
2023-10-22T09:22:06.958Z,1.00
2023-10-22T09:24:36.220Z,1.00
2023-10-22T09:27:04.761Z,1.00
2023-10-22T09:29:34.084Z,99.90
2023-10-22T09:32:02.057Z,1.00
2023-10-22T09:34:32.134Z,1.00
2023-10-22T09:37:00.690Z,1.00
2023-10-22T09:39:37.351Z,1.00
2023-10-22T09:44:38.633Z,98.10
2023-10-22T09:47:08.338Z,1.00
2023-10-22T09:49:39.782Z,1.00
2023-10-22T09:52:08.437Z,1.00
2023-10-22T09:54:41.418Z,1.00
2023-10-22T09:57:11.152Z,99.90
2023-10-22T09:59:40.204Z,99.90
2023-10-22T10:02:09.880Z,1.00
2023-10-22T10:04:38.893Z,99.90
2023-10-22T10:07:06.885Z,1.00
2023-10-22T10:09:36.151Z,99.90
2023-10-22T10:12:09.517Z,1.00
2023-10-22T10:14:43.399Z,1.00
2023-10-22T10:17:12.358Z,1.00
2023-10-22T10:19:40.295Z,99.90
2023-10-22T10:22:08.785Z,99.90
2023-10-22T10:24:37.605Z,1.00
2023-10-22T10:27:26.679Z,1.00
2023-10-22T10:30:24.741Z,99.90
2023-10-22T10:33:06.877Z,99.90
2023-10-22T10:35:46.892Z,1.00
2023-10-22T10:38:23.230Z,99.90
2023-10-22T10:40:53.702Z,1.00
2023-10-22T10:44:01.965Z,1.00
2023-10-22T10:46:31.005Z,93.70
2023-10-22T10:48:59.273Z,1.00
2023-10-22T10:51:28.091Z,1.00
2023-10-22T10:54:21.944Z,99.90
2023-10-22T10:56:53.802Z,1.00
2023-10-22T10:59:31.470Z,7.60
2023-10-22T11:02:04.884Z,1.00
2023-10-22T11:04:33.215Z,3.00
2023-10-22T11:07:10.126Z,99.90
2023-10-22T11:09:48.022Z,1.00
2023-10-22T11:12:16.313Z,99.90
2023-10-22T11:14:45.670Z,99.90
2023-10-22T11:17:13.892Z,99.90
2023-10-22T11:19:43.984Z,99.90
2023-10-22T11:22:13.889Z,99.90
2023-10-22T11:24:43.107Z,99.90
2023-10-22T11:27:11.926Z,99.90
2023-10-22T11:29:42.981Z,99.90
2023-10-22T11:32:15.136Z,99.90
2023-10-22T11:34:53.671Z,99.90
2023-10-22T11:37:23.047Z,99.90
2023-10-22T11:39:51.297Z,99.90
2023-10-22T11:42:19.274Z,99.90
2023-10-22T11:44:47.782Z,1.00
2023-10-22T11:47:28.174Z,99.90
2023-10-22T11:49:57.089Z,99.90
2023-10-22T11:52:51.289Z,99.90
2023-10-22T11:55:35.531Z,99.90
2023-10-22T11:58:05.586Z,99.90
2023-10-22T12:00:33.648Z,99.90
2023-10-22T12:03:03.118Z,99.90
2023-10-22T12:05:31.172Z,99.90
2023-10-22T12:07:59.198Z,99.90
2023-10-22T12:10:29.310Z,99.90
2023-10-22T12:12:58.028Z,99.90
2023-10-22T12:15:26.735Z,99.90
2023-10-22T12:17:56.285Z,99.90
2023-10-22T12:20:25.899Z,99.90
2023-10-22T12:22:54.263Z,99.90
2023-10-22T12:25:22.199Z,99.90
2023-10-22T12:27:50.228Z,99.90
2023-10-22T12:30:18.791Z,99.90
2023-10-22T12:32:47.565Z,99.90
2023-10-22T12:35:15.722Z,99.90
2023-10-22T12:37:44.998Z,99.90
2023-10-22T12:40:13.572Z,99.90
2023-10-22T12:42:43.332Z,99.90
2023-10-22T12:45:11.975Z,99.90
2023-10-22T12:47:40.109Z,99.90
2023-10-22T12:50:08.721Z,99.90
2023-10-22T12:52:37.375Z,99.90
2023-10-22T12:55:07.838Z,99.90
2023-10-22T12:57:36.110Z,99.90
2023-10-22T13:00:07.107Z,99.90
2023-10-22T13:02:36.029Z,99.90
2023-10-22T13:05:04.916Z,99.90
2023-10-22T13:07:34.306Z,99.90
2023-10-22T13:10:04.265Z,99.90
2023-10-22T13:12:33.674Z,99.90
2023-10-22T13:15:01.651Z,99.90
2023-10-22T13:17:32.085Z,99.90
2023-10-22T13:20:00.511Z,99.90
2023-10-22T13:22:29.152Z,99.90
2023-10-22T13:24:57.571Z,99.90
2023-10-22T13:27:25.654Z,99.90
2023-10-22T13:29:55.149Z,99.90
2023-10-22T13:32:23.127Z,99.90
2023-10-22T13:34:51.016Z,99.90
2023-10-22T13:37:19.121Z,99.90
2023-10-22T13:39:47.507Z,99.90
2023-10-22T13:42:16.266Z,99.90
2023-10-22T13:44:47.119Z,99.90
2023-10-22T13:47:17.627Z,99.90
2023-10-22T13:49:46.216Z,99.90
2023-10-22T13:52:14.199Z,99.90
2023-10-22T13:54:42.506Z,99.90
2023-10-22T13:57:10.937Z,99.90
2023-10-22T13:59:38.931Z,99.90
2023-10-22T14:02:06.869Z,99.90
2023-10-22T14:04:36.234Z,99.90
2023-10-22T14:07:04.402Z,99.90
2023-10-22T14:09:32.437Z,99.90
2023-10-22T14:12:00.437Z,99.90
2023-10-22T14:14:28.757Z,99.90
2023-10-22T14:16:56.808Z,99.90
2023-10-22T14:19:24.837Z,99.90
2023-10-22T14:21:54.092Z,99.90
2023-10-22T14:24:23.204Z,99.90
2023-10-22T14:27:02.633Z,99.90
2023-10-22T14:29:38.300Z,99.90
2023-10-22T14:32:06.595Z,99.90
2023-10-22T14:34:34.490Z,99.90
2023-10-22T14:37:03.875Z,99.90
2023-10-22T14:39:33.593Z,99.90
2023-10-22T14:42:01.511Z,99.90
2023-10-22T14:44:29.466Z,99.90
2023-10-22T14:46:57.694Z,99.90
2023-10-22T14:49:25.694Z,99.90
2023-10-22T14:51:53.697Z,99.90
2023-10-22T14:54:25.765Z,99.90
2023-10-22T14:56:53.699Z,99.90
2023-10-22T14:59:21.645Z,99.90
2023-10-22T15:01:49.562Z,99.90
2023-10-22T15:04:17.645Z,99.90
2023-10-22T15:06:45.656Z,99.90
2023-10-22T15:09:13.686Z,99.90
2023-10-22T15:11:42.962Z,99.90
2023-10-22T15:14:10.904Z,99.90
2023-10-22T15:16:41.801Z,99.90
2023-10-22T15:19:10.790Z,99.90
2023-10-22T15:21:39.824Z,99.90
2023-10-22T15:24:08.944Z,99.90
2023-10-22T15:26:37.313Z,99.90
2023-10-22T15:29:06.627Z,99.90
2023-10-22T15:31:34.575Z,99.90
2023-10-22T15:34:02.563Z,99.90
2023-10-22T15:36:30.572Z,99.90
2023-10-22T15:38:58.506Z,99.90
2023-10-22T15:41:26.470Z,99.90
2023-10-22T15:43:57.595Z,99.90
2023-10-22T15:46:28.886Z,99.90
2023-10-22T15:48:57.127Z,99.90
2023-10-22T15:51:25.914Z,99.90
2023-10-22T15:53:53.897Z,1.00
2023-10-22T15:56:21.836Z,1.00
2023-10-22T15:58:53.914Z,99.90
2023-10-22T16:01:21.889Z,1.00
2023-10-22T16:03:51.622Z,1.00
2023-10-22T16:06:19.842Z,1.00
2023-10-22T16:08:47.756Z,3.60
2023-10-22T16:11:16.808Z,99.90
2023-10-22T16:13:44.950Z,99.90
2023-10-22T16:16:12.907Z,99.90
2023-10-22T16:18:40.971Z,99.90
2023-10-22T16:21:10.644Z,99.90
2023-10-22T16:23:40.481Z,99.90
2023-10-22T16:26:09.574Z,99.90
2023-10-22T16:28:37.453Z,99.90
2023-10-22T16:31:05.404Z,99.90
2023-10-22T16:33:33.855Z,99.90
2023-10-22T16:36:06.962Z,99.90
2023-10-22T16:38:36.241Z,1.00
2023-10-22T16:41:08.527Z,1.00
2023-10-22T16:43:37.305Z,1.00
2023-10-22T16:46:06.001Z,1.00
2023-10-22T16:48:34.246Z,1.00
2023-10-22T16:51:02.898Z,1.00
2023-10-22T16:53:31.088Z,1.00
2023-10-22T16:56:03.957Z,1.00
2023-10-22T16:58:33.285Z,1.00
2023-10-22T17:01:04.362Z,1.00
2023-10-22T17:03:32.558Z,1.00
2023-10-22T17:06:00.765Z,1.00
2023-10-22T17:08:28.858Z,1.00
2023-10-22T17:10:56.779Z,1.00
2023-10-22T17:13:26.107Z,1.00
2023-10-22T17:15:54.152Z,1.00
2023-10-22T17:18:22.234Z,1.00
2023-10-22T17:20:50.173Z,1.00
2023-10-22T17:23:18.088Z,1.00
2023-10-22T17:25:49.979Z,1.00
2023-10-22T17:28:17.900Z,1.00
2023-10-22T17:30:48.161Z,1.00
2023-10-22T17:33:16.256Z,1.00
2023-10-22T17:35:44.164Z,1.00
2023-10-22T17:38:12.072Z,1.00
2023-10-22T17:40:40.867Z,41.60
2023-10-22T17:43:10.460Z,44.50
2023-10-22T17:45:41.025Z,39.10
2023-10-22T17:48:11.329Z,47.30
2023-10-22T17:50:39.615Z,78.30
2023-10-22T17:53:19.948Z,99.90
2023-10-22T17:58:34.919Z,99.90
2023-10-22T18:01:02.982Z,99.90
2023-10-22T18:03:34.483Z,99.90
2023-10-22T18:06:03.424Z,99.90
2023-10-22T18:08:33.281Z,99.90
2023-10-22T18:11:01.791Z,99.90
2023-10-22T18:13:31.381Z,99.90
2023-10-22T18:15:59.858Z,99.90
2023-10-22T18:18:27.977Z,99.90
2023-10-22T18:21:03.285Z,99.90
2023-10-22T18:23:31.345Z,99.90
2023-10-22T18:26:03.493Z,99.90
2023-10-22T18:28:31.669Z,99.90
2023-10-22T18:30:59.792Z,99.90
2023-10-22T18:33:27.808Z,99.90
2023-10-22T18:36:00.776Z,99.90
2023-10-22T18:38:30.493Z,99.90
2023-10-22T18:41:07.942Z,99.90
2023-10-22T18:43:35.852Z,99.90
2023-10-22T18:46:03.839Z,99.90
2023-10-22T18:48:31.991Z,99.90
2023-10-22T18:51:04.488Z,99.90
2023-10-22T18:53:33.117Z,99.90
2023-10-22T18:56:03.953Z,99.90
2023-10-22T18:58:33.487Z,99.90
2023-10-22T19:01:03.409Z,99.90
2023-10-22T19:03:31.873Z,99.90
2023-10-22T19:06:01.224Z,99.90
2023-10-22T19:08:29.142Z,99.90
2023-10-22T19:10:59.513Z,99.90
2023-10-22T19:13:27.494Z,99.90
2023-10-22T19:15:55.393Z,99.90
2023-10-22T19:18:23.298Z,99.90
2023-10-22T19:20:57.573Z,99.90
2023-10-22T19:23:26.933Z,99.90
2023-10-22T19:25:59.055Z,99.90
2023-10-22T19:28:27.282Z,99.90
2023-10-22T19:30:55.818Z,99.90
2023-10-22T19:33:30.940Z,99.90
2023-10-22T19:35:59.331Z,99.90
2023-10-22T19:38:30.472Z,99.90
2023-10-22T19:40:58.765Z,99.90
2023-10-22T19:43:26.893Z,99.90
2023-10-22T19:45:58.423Z,99.90
2023-10-22T19:48:27.548Z,99.90
2023-10-22T19:51:01.000Z,99.90
2023-10-22T19:53:30.626Z,99.90
2023-10-22T19:55:59.393Z,99.90
2023-10-22T19:58:27.687Z,99.90
2023-10-22T20:00:55.624Z,99.90
2023-10-22T20:03:23.806Z,99.90
2023-10-22T20:05:53.448Z,99.90
2023-10-22T20:08:22.608Z,99.90
2023-10-22T20:10:51.971Z,99.90
2023-10-22T20:13:19.862Z,99.90
2023-10-22T20:15:49.653Z,99.90
2023-10-22T20:18:17.779Z,99.90
2023-10-22T20:20:45.756Z,99.90
2023-10-22T20:23:13.699Z,99.90
2023-10-22T20:25:41.604Z,99.90
2023-10-22T20:28:10.865Z,99.90
2023-10-22T20:30:38.850Z,99.90
2023-10-22T20:33:07.122Z,99.90
2023-10-22T20:35:35.166Z,99.90
2023-10-22T20:38:10.544Z,99.90
2023-10-22T20:43:13.880Z,99.90
2023-10-22T20:45:43.016Z,99.90
2023-10-22T20:48:11.190Z,99.90
2023-10-22T20:50:39.372Z,99.90
2023-10-22T20:53:07.800Z,99.90
2023-10-22T20:55:39.269Z,99.90
2023-10-22T20:58:07.304Z,99.90
2023-10-22T21:00:36.645Z,99.90
2023-10-22T21:03:04.997Z,99.90
2023-10-22T21:05:33.142Z,99.90
2023-10-22T21:08:01.063Z,99.90
2023-10-22T21:10:29.021Z,99.90
2023-10-22T21:12:57.048Z,99.90
2023-10-22T21:15:24.975Z,99.90
2023-10-22T21:17:54.286Z,99.90
2023-10-22T21:20:22.291Z,99.90
2023-10-22T21:22:51.808Z,99.90
2023-10-22T21:25:20.154Z,99.90
2023-10-22T21:27:48.227Z,99.90
2023-10-22T21:30:16.374Z,99.90
2023-10-22T21:32:44.335Z,99.90
2023-10-22T21:35:13.693Z,99.90
2023-10-22T21:37:41.741Z,99.90
2023-10-22T21:40:10.371Z,99.90
2023-10-22T21:42:38.519Z,99.90
2023-10-22T21:45:07.621Z,99.90
2023-10-22T21:47:35.612Z,99.90
2023-10-22T21:50:03.959Z,99.90
2023-10-22T21:52:33.677Z,99.90
2023-10-22T21:55:01.579Z,99.90
2023-10-22T21:57:29.583Z,99.90
2023-10-22T21:59:57.756Z,99.90
2023-10-22T22:02:25.764Z,99.90
2023-10-22T22:04:53.732Z,99.90
2023-10-22T22:07:21.627Z,99.90
2023-10-22T22:09:50.936Z,99.90
2023-10-22T22:12:17.971Z,99.90
2023-10-22T22:14:45.869Z,99.90
2023-10-22T22:17:13.771Z,99.90
2023-10-22T22:19:41.859Z,99.90
2023-10-22T22:22:09.886Z,99.90
2023-10-22T22:24:38.013Z,99.90
2023-10-22T22:27:07.626Z,99.90
2023-10-22T22:29:35.599Z,99.90
2023-10-22T22:32:03.564Z,99.90
2023-10-22T22:34:31.479Z,99.90
2023-10-22T22:36:59.374Z,99.90
2023-10-22T22:39:27.308Z,99.90
2023-10-22T22:41:55.241Z,99.90
2023-10-22T22:44:24.737Z,99.90
2023-10-22T22:46:52.662Z,99.90
2023-10-22T22:49:20.819Z,99.90
2023-10-22T22:51:49.128Z,99.90
2023-10-22T22:54:17.478Z,99.90
2023-10-22T22:56:45.438Z,99.90
2023-10-22T22:59:13.354Z,99.90
2023-10-22T23:01:42.708Z,99.90
2023-10-22T23:04:10.896Z,99.90
2023-10-22T23:06:38.804Z,99.90
2023-10-22T23:09:06.834Z,99.90
2023-10-22T23:11:34.751Z,99.90
2023-10-22T23:14:02.913Z,99.90
2023-10-22T23:16:30.863Z,99.90
2023-10-22T23:19:00.214Z,99.90
2023-10-22T23:21:28.194Z,99.90
2023-10-22T23:23:56.125Z,99.90
2023-10-22T23:26:24.082Z,99.90
2023-10-22T23:28:51.974Z,99.90
2023-10-22T23:31:20.022Z,99.90
2023-10-22T23:33:48.117Z,99.90
2023-10-22T23:36:17.482Z,99.90
2023-10-22T23:38:45.456Z,99.90
2023-10-22T23:41:13.349Z,99.90
2023-10-22T23:43:43.463Z,99.90
2023-10-22T23:46:11.440Z,99.90
2023-10-22T23:48:39.540Z,99.90
2023-10-22T23:51:07.483Z,99.90
2023-10-22T23:53:36.779Z,99.90
2023-10-22T23:56:04.719Z,99.90
2023-10-22T23:58:32.596Z,99.90
